Airfield :
LOGIN :

Register | Disclaimer

   EN    FR    IT 

 










Legend :    VFR   Marginal VFR   IFR   Intensive IFR   Very Intensive IFR
Visi :
Ceiling :
>= 8 km
>= 3000ft
5 to 8 km
1000 to 3000 ft
1500m to 5 km
500 to 1000 ft
800 to 1500m
200 to 500 ft
< 800m
< 200 ft
Symbols :   Thunderstorms  Fog  Heavy snow  Heavy precipitations  Wind > 20 kt
SIGMETs :     Misc.  Thunderstorms  Icing  Turbulence  Mountain Waves  Volcanic Ashes






- Airport Elevation : 1895 ft


LSMM - Meiringen

CURRENT METAR :
  • 290720Z AUTO 32003KT 260V010 9999NDV FEW031 BKN053 11/05 Q1011 RMK

EXPIRED METARs :
  • 290650Z AUTO 06006KT 010V120 9999NDV FEW035 BKN050 11/05 Q1011 RMK
  • 290620Z AUTO 04008KT 010V080 9999NDV FEW031 BKN065 11/04 Q1011 RMK
  • 290550Z AUTO 00000KT 9999NDV FEW032 SCT067 11/05 Q1011 RMK
  • 290520Z AUTO VRB02KT 9999NDV FEW033 SCT058 BKN067 11/06 Q1011 RMK
  • 290450Z AUTO 02009KT 330V050 9999NDV FEW044 SCT050 OVC066 12/04 Q1011 RMK

Expired Forecast.



MET'MAP, your aeronautical weather chart ! - Copyright ORBIFLY December 2007 - Disclaimer

ORBIFLY MET'MAP TEAM :

Programming & Development : Alexandra Zaïnal
Original concept : Baudouin d'Aumeries
Technical & hardware support : Manuel Goepfert
Assistance : Marc-Olivier Méhu

Contact : metmap@orbifly.com




SOURCES & CREDITS :

   NOAA